AFV112 FQMA-FQNP
Flight info
| Callsign | AFV112 |
|---|---|
| Flight time | N/A |
| Altitude | 41000 |
| Route | UVGAN1A IMTAG UW19 IBSAX DCT IMSUM DCT NIBAX DCT ITPAB |
| Aircraft | B738/M-SDE2E3FGHIRWXY/LB1 |
Departure
| Time | 2026-04-23 15:32 |
|---|---|
| Airport | Maputo Airport (FQMA) |
Arrival
| Time | N/A |
|---|---|
| Airport | Nampula Airport (FQNP) |
| Time | Latitude | Longitude | Altitude | Speed | Heading |
|---|---|---|---|---|---|
| 2026-04-23 15:13 | -25.92368 | 32.57375 | 123 ft | 0 kts | 119° |
| 2026-04-23 15:23 | -25.92365 | 32.57369 | 128 ft | 2 kts | 118° |
| 2026-04-23 15:23 | -25.92357 | 32.57353 | 123 ft | 2 kts | 120° |
| 2026-04-23 15:23 | -25.92349 | 32.57337 | 123 ft | 2 kts | 120° |
| 2026-04-23 15:24 | -25.92342 | 32.57321 | 125 ft | 2 kts | 109° |
| 2026-04-23 15:24 | -25.92344 | 32.57305 | 126 ft | 2 kts | 33° |
| 2026-04-23 15:24 | -25.92352 | 32.57299 | 123 ft | 0 kts | 30° |
| 2026-04-23 15:24 | -25.92353 | 32.57299 | 123 ft | 0 kts | 30° |
| 2026-04-23 15:26 | -25.92352 | 32.57299 | 123 ft | 1 kts | 30° |
| 2026-04-23 15:26 | -25.92322 | 32.57318 | 125 ft | 8 kts | 30° |
| 2026-04-23 15:27 | -25.92273 | 32.57349 | 131 ft | 8 kts | 29° |
| 2026-04-23 15:27 | -25.92205 | 32.57390 | 131 ft | 16 kts | 28° |
| 2026-04-23 15:27 | -25.92080 | 32.57465 | 128 ft | 22 kts | 28° |
| 2026-04-23 15:27 | -25.91948 | 32.57548 | 130 ft | 22 kts | 29° |
| 2026-04-23 15:28 | -25.91817 | 32.57625 | 126 ft | 21 kts | 29° |
| 2026-04-23 15:28 | -25.91692 | 32.57703 | 129 ft | 20 kts | 28° |
| 2026-04-23 15:28 | -25.91570 | 32.57777 | 132 ft | 20 kts | 29° |
| 2026-04-23 15:28 | -25.91452 | 32.57849 | 135 ft | 20 kts | 28° |
| 2026-04-23 15:29 | -25.91315 | 32.57933 | 139 ft | 26 kts | 28° |
| 2026-04-23 15:29 | -25.91135 | 32.58043 | 141 ft | 32 kts | 29° |
| 2026-04-23 15:29 | -25.90937 | 32.58165 | 139 ft | 33 kts | 28° |
| 2026-04-23 15:29 | -25.90745 | 32.58282 | 140 ft | 30 kts | 29° |
| 2026-04-23 15:30 | -25.90567 | 32.58390 | 142 ft | 28 kts | 29° |
| 2026-04-23 15:30 | -25.90424 | 32.58453 | 145 ft | 16 kts | 336° |
| 2026-04-23 15:30 | -25.90368 | 32.58355 | 145 ft | 11 kts | 298° |
| 2026-04-23 15:30 | -25.90357 | 32.58333 | 145 ft | 0 kts | 297° |
| 2026-04-23 15:31 | -25.90354 | 32.58326 | 145 ft | 3 kts | 295° |
| 2026-04-23 15:31 | -25.90368 | 32.58300 | 144 ft | 5 kts | 210° |
| 2026-04-23 15:31 | -25.90524 | 32.58206 | 139 ft | 72 kts | 208° |
| 2026-04-23 15:31 | -25.91239 | 32.57763 | 258 ft | 154 kts | 210° |
| 2026-04-23 15:32 | -25.92258 | 32.57134 | 1153 ft | 182 kts | 203° |
| 2026-04-23 15:32 | -25.93030 | 32.56707 | 1924 ft | 181 kts | 201° |
| 2026-04-23 15:32 | -25.94219 | 32.56039 | 2824 ft | 207 kts | 200° |
| 2026-04-23 15:32 | -25.95543 | 32.55248 | 3450 ft | 222 kts | 202° |
| 2026-04-23 15:33 | -25.96922 | 32.54386 | 4150 ft | 234 kts | 203° |
| 2026-04-23 15:33 | -25.98411 | 32.53440 | 4669 ft | 254 kts | 204° |
| 2026-04-23 15:33 | -25.99974 | 32.52441 | 5579 ft | 263 kts | 202° |
| 2026-04-23 15:33 | -26.01718 | 32.51998 | 6511 ft | 259 kts | 170° |
| 2026-04-23 15:34 | -26.03392 | 32.52692 | 7378 ft | 261 kts | 143° |
| 2026-04-23 15:34 | -26.04640 | 32.54145 | 8319 ft | 263 kts | 120° |
| 2026-04-23 15:34 | -26.05254 | 32.56076 | 9222 ft | 269 kts | 95° |
| 2026-04-23 15:34 | -26.05033 | 32.58134 | 10137 ft | 274 kts | 67° |
| 2026-04-23 15:35 | -26.03955 | 32.59933 | 10696 ft | 293 kts | 47° |
| 2026-04-23 15:35 | -26.02364 | 32.61511 | 11112 ft | 315 kts | 41° |
| 2026-04-23 15:35 | -26.00623 | 32.63068 | 11731 ft | 328 kts | 39° |
| 2026-04-23 15:35 | -25.98808 | 32.64657 | 12487 ft | 336 kts | 38° |
| 2026-04-23 15:36 | -25.96951 | 32.66287 | 13224 ft | 345 kts | 37° |
| 2026-04-23 15:36 | -25.95050 | 32.67970 | 13934 ft | 354 kts | 36° |
| 2026-04-23 15:36 | -25.93106 | 32.69704 | 14628 ft | 359 kts | 38° |
| 2026-04-23 15:36 | -25.91163 | 32.71451 | 15456 ft | 361 kts | 35° |
| 2026-04-23 15:37 | -25.89202 | 32.73221 | 16198 ft | 364 kts | 34° |
| 2026-04-23 15:37 | -25.87228 | 32.75000 | 16985 ft | 367 kts | 36° |
| 2026-04-23 15:37 | -25.85263 | 32.76773 | 17696 ft | 371 kts | 37° |
| 2026-04-23 15:37 | -25.83222 | 32.78618 | 18449 ft | 375 kts | 36° |
| 2026-04-23 15:38 | -25.81191 | 32.80454 | 19095 ft | 379 kts | 36° |
| 2026-04-23 15:38 | -25.79137 | 32.82311 | 19754 ft | 382 kts | 35° |
| 2026-04-23 15:38 | -25.77073 | 32.84175 | 20413 ft | 384 kts | 36° |
| 2026-04-23 15:38 | -25.74989 | 32.86056 | 21064 ft | 388 kts | 35° |
| 2026-04-23 15:39 | -25.72891 | 32.87950 | 21697 ft | 391 kts | 36° |
| 2026-04-23 15:39 | -25.70797 | 32.89838 | 22268 ft | 397 kts | 34° |
| 2026-04-23 15:39 | -25.68621 | 32.91797 | 22571 ft | 409 kts | 36° |
| 2026-04-23 15:39 | -25.66366 | 32.93830 | 23082 ft | 415 kts | 36° |
| 2026-04-23 15:40 | -25.64140 | 32.95837 | 23599 ft | 421 kts | 36° |
| 2026-04-23 15:40 | -25.61853 | 32.97896 | 24066 ft | 426 kts | 36° |
| 2026-04-23 15:40 | -25.59530 | 32.99951 | 24581 ft | 427 kts | 32° |
| 2026-04-23 15:40 | -25.56935 | 33.01482 | 25129 ft | 422 kts | 19° |
| 2026-04-23 15:41 | -25.54235 | 33.02740 | 25728 ft | 422 kts | 18° |
| 2026-04-23 15:41 | -25.51517 | 33.03985 | 26285 ft | 423 kts | 18° |
| 2026-04-23 15:41 | -25.48786 | 33.05240 | 26804 ft | 426 kts | 18° |
| 2026-04-23 15:41 | -25.46051 | 33.06509 | 27314 ft | 428 kts | 18° |
| 2026-04-23 15:42 | -25.43300 | 33.07798 | 27819 ft | 430 kts | 18° |
| 2026-04-23 15:42 | -25.40542 | 33.09100 | 28320 ft | 432 kts | 18° |
| 2026-04-23 15:42 | -25.37772 | 33.10412 | 28809 ft | 434 kts | 18° |
| 2026-04-23 15:42 | -25.34990 | 33.11733 | 29308 ft | 436 kts | 17° |
| 2026-04-23 15:43 | -25.32199 | 33.13058 | 29769 ft | 438 kts | 17° |
| 2026-04-23 15:43 | -25.29395 | 33.14389 | 30223 ft | 440 kts | 17° |
| 2026-04-23 15:43 | -25.26570 | 33.15728 | 30611 ft | 442 kts | 17° |
| 2026-04-23 15:43 | -25.23729 | 33.17074 | 30884 ft | 447 kts | 17° |
| 2026-04-23 15:44 | -25.20858 | 33.18432 | 31164 ft | 451 kts | 17° |
| 2026-04-23 15:44 | -25.17970 | 33.19799 | 31539 ft | 452 kts | 16° |
| 2026-04-23 15:44 | -25.15081 | 33.21167 | 31937 ft | 453 kts | 16° |
| 2026-04-23 15:44 | -25.12182 | 33.22539 | 32300 ft | 454 kts | 16° |
| 2026-04-23 15:45 | -25.09277 | 33.23913 | 32684 ft | 454 kts | 16° |
| 2026-04-23 15:45 | -25.06370 | 33.25287 | 33135 ft | 453 kts | 16° |
| 2026-04-23 15:45 | -25.03479 | 33.26653 | 33612 ft | 451 kts | 16° |
| 2026-04-23 15:45 | -25.00598 | 33.28014 | 34086 ft | 450 kts | 15° |
| 2026-04-23 15:46 | -24.97733 | 33.29366 | 34475 ft | 448 kts | 15° |
| 2026-04-23 15:46 | -24.94865 | 33.30718 | 34839 ft | 448 kts | 15° |
| 2026-04-23 15:46 | -24.92006 | 33.32065 | 35189 ft | 446 kts | 15° |
| 2026-04-23 15:46 | -24.89151 | 33.33409 | 35549 ft | 445 kts | 15° |
| 2026-04-23 15:47 | -24.86309 | 33.34746 | 35883 ft | 444 kts | 14° |
| 2026-04-23 15:47 | -24.83504 | 33.36065 | 36196 ft | 443 kts | 14° |
| 2026-04-23 15:47 | -24.80671 | 33.37398 | 36539 ft | 442 kts | 14° |
| 2026-04-23 15:47 | -24.77802 | 33.38746 | 36796 ft | 443 kts | 14° |
| 2026-04-23 15:48 | -24.75005 | 33.40059 | 37008 ft | 444 kts | 14° |
| 2026-04-23 15:48 | -24.72169 | 33.41390 | 37300 ft | 443 kts | 14° |
| 2026-04-23 15:48 | -24.69391 | 33.42909 | 37623 ft | 450 kts | 21° |
| 2026-04-23 15:48 | -24.66718 | 33.44731 | 37922 ft | 453 kts | 24° |
| 2026-04-23 15:49 | -24.64092 | 33.46645 | 38184 ft | 454 kts | 24° |
| 2026-04-23 15:49 | -24.61469 | 33.48572 | 38409 ft | 454 kts | 24° |
| 2026-04-23 15:49 | -24.58833 | 33.50478 | 38658 ft | 453 kts | 23° |
| 2026-04-23 15:49 | -24.56193 | 33.52352 | 38923 ft | 451 kts | 23° |
| 2026-04-23 15:50 | -24.53550 | 33.54202 | 39116 ft | 451 kts | 22° |
| 2026-04-23 15:50 | -24.50895 | 33.56046 | 39224 ft | 453 kts | 22° |
| 2026-04-23 15:50 | -24.48222 | 33.57898 | 39195 ft | 456 kts | 23° |
| 2026-04-23 15:51 | -24.42873 | 33.61613 | 39217 ft | 454 kts | 23° |
| 2026-04-23 15:51 | -24.37544 | 33.65307 | 39229 ft | 452 kts | 23° |
| 2026-04-23 15:52 | -24.32231 | 33.68971 | 39222 ft | 451 kts | 23° |
| 2026-04-23 15:52 | -24.26928 | 33.72626 | 39220 ft | 450 kts | 23° |
| 2026-04-23 15:53 | -24.21602 | 33.76290 | 39274 ft | 456 kts | 23° |
| 2026-04-23 15:53 | -24.16204 | 33.80002 | 39506 ft | 459 kts | 23° |
| 2026-04-23 15:53 | -24.13505 | 33.81861 | 39692 ft | 458 kts | 23° |
| 2026-04-23 15:54 | -24.10809 | 33.83718 | 39866 ft | 458 kts | 23° |
| 2026-04-23 15:54 | -24.08108 | 33.85575 | 39991 ft | 459 kts | 23° |
| 2026-04-23 15:54 | -24.05397 | 33.87437 | 40128 ft | 460 kts | 23° |
| 2026-04-23 15:54 | -24.02684 | 33.89300 | 40282 ft | 460 kts | 23° |
| 2026-04-23 15:55 | -23.99972 | 33.91162 | 40432 ft | 460 kts | 23° |
| 2026-04-23 15:55 | -23.97262 | 33.93021 | 40582 ft | 460 kts | 23° |
| 2026-04-23 15:55 | -23.94543 | 33.94885 | 40707 ft | 461 kts | 23° |
| 2026-04-23 15:55 | -23.91825 | 33.96747 | 40811 ft | 462 kts | 23° |
| 2026-04-23 15:56 | -23.89102 | 33.98610 | 40905 ft | 463 kts | 23° |
| 2026-04-23 15:56 | -23.86373 | 34.00479 | 41060 ft | 462 kts | 23° |
| 2026-04-23 15:56 | -23.83646 | 34.02345 | 41177 ft | 462 kts | 24° |
| 2026-04-23 15:57 | -23.78211 | 34.06059 | 41210 ft | 465 kts | 24° |
| 2026-04-23 15:57 | -23.72730 | 34.09804 | 41210 ft | 465 kts | 24° |
| 2026-04-23 15:58 | -23.67247 | 34.13546 | 41197 ft | 464 kts | 24° |
| 2026-04-23 15:58 | -23.61781 | 34.17272 | 41194 ft | 463 kts | 24° |
| 2026-04-23 15:59 | -23.56315 | 34.20994 | 41199 ft | 463 kts | 24° |
| 2026-04-23 15:59 | -23.50857 | 34.24707 | 41178 ft | 462 kts | 24° |
| 2026-04-23 16:00 | -23.45405 | 34.28412 | 41180 ft | 461 kts | 24° |
| 2026-04-23 16:00 | -23.39964 | 34.32106 | 41186 ft | 461 kts | 24° |
| 2026-04-23 16:01 | -23.34524 | 34.35797 | 41186 ft | 461 kts | 24° |
| 2026-04-23 16:01 | -23.29081 | 34.39485 | 41182 ft | 461 kts | 24° |
| 2026-04-23 16:02 | -23.23637 | 34.43182 | 41180 ft | 461 kts | 24° |
| 2026-04-23 16:02 | -23.18193 | 34.46881 | 41166 ft | 462 kts | 25° |
| 2026-04-23 16:03 | -23.12748 | 34.50578 | 41175 ft | 462 kts | 25° |
| 2026-04-23 16:03 | -23.07297 | 34.54274 | 41170 ft | 462 kts | 25° |
| 2026-04-23 16:04 | -23.01840 | 34.57971 | 41168 ft | 463 kts | 25° |
| 2026-04-23 16:04 | -22.96409 | 34.61646 | 41170 ft | 463 kts | 25° |
| 2026-04-23 16:05 | -22.91828 | 34.64743 | 41159 ft | 463 kts | 25° |
| 2026-04-23 16:05 | -22.85462 | 34.69044 | 41148 ft | 464 kts | 25° |
| 2026-04-23 16:06 | -22.79987 | 34.72739 | 41161 ft | 464 kts | 25° |
| 2026-04-23 16:06 | -22.74509 | 34.76432 | 41162 ft | 464 kts | 25° |